12 Heures de Spa - Qualifying Practice 1 results

05.06.2009: 1 3 S1 KS Motorsport VANBELLINGEN Steve/VANDERMAESEN Marnix/MAES Ruben BMW M3 2:27.051 11 2:27.051 171,467 2 1 S1 Delahaye Racing Team BOUVY Frederic/KELDERS Christian/ICKX Vanina Renault Mégane 2:27.439 4 2:27.439 0:00.388 171,016 3 17 S1 Chad Raci

1 3 S1 KS Motorsport VANBELLINGEN Steve/VANDERMAESEN Marnix/MAES Ruben BMW M3 2:27.051 11 2:27.051 171,467

2 1 S1 Delahaye Racing Team BOUVY Frederic/KELDERS Christian/ICKX Vanina Renault Mégane 2:27.439 4 2:27.439 0:00.388 171,016

3 17 S1 Chad Racing VANTHOOR Raf/WAUTERS Kris/WAUTERS Koen Kia Proceed 2:28.120 17 2:28.120 0:01.069 170,230

4 8 S1 Boutsen Energy Racing DERMONT David/LEMERET Stéphane/LAMBOTTE Joakim Mazda RX 8 2:28.228 16 2:28.228 0:01.177 170,106

5 7 S1 Chad Racing STEVENY Philippe/DOCKERILL Iain/KANE Steven Kia Proceed 2:28.284 18 2:28.284 0:01.233 170,041

6 21 S1 KS Motorsport MOONENS Werner/REDANT Bert/MUYTJENS Olivier BMW M3 2:28.369 13 2:28.369 0:01.318 169,944

7 6 S1 Motorsport International SMITS Jean-Jacques/CLEYNHENS Walter/THIRY Jérôme/VERBIST François Jaguar X Type 2:30.640 16 2:30.640 0:03.589 167,382

8 0 S1 Street Machine DE CREM Nicolas/SCHROYEN Julien/GOOSSENS Marc Audi A4 2:34.135 15 2:34.135 0:07.084 163,586

9 14 S2 Gomez Compétition SERVAIS Grégory/FONTAINE Loïc/REYMOND Jérémy Solution F 2:34.665 18 2:34.665 0:07.614 163,026

10 38 T3 Club Seat CORTHALS Pierre-Yves/GENE Jordi/VILLENEUVE Jacques Seat Leon Supercopa 2:34.940 19 2:34.940 0:07.889 162,737

11 10 S2 Street Machine FUMAL Armand/SOULET Maxime/PULINX Michel Solution F 2:35.205 13 2:35.205 0:08.154 162,459

12 31 T3 Denospi Racing ROSOUX Pierre-Yves/CHOUVEL Martial/GEOFFROY Christophe Seat Leon Supercopa 2:36.449 19 2:36.449 0:09.398 161,167

13 34 T3 Qvick Motors Racing QVICK Erik/JONCKHEERE Frédériqu/MERENDINO Michele BMW M3 WTCC 2:36.484 17 2:36.484 0:09.433 161,131

14 2 S2 Gomez Compétition SCHMETZ Michaël/GOMEZ Arnaud/GOMEZ Olivier Solution F 2:36.821 17 2:36.821 0:09.770 160,785

15 15 S2 Gomez Compétition RADERMECKER Vincent/LATINNE Ronnie/DUSSOLLIET Sébastien Solution F 2:36.846 16 2:36.846 0:09.795 160,759

16 9 S1 Motorsport International FRANCHI René/VANNERUM Jean-Pierre/WARROQUIERS Fabrice/TURCO François Jaguar X Type 2:36.989 16 2:36.989 0:09.938 160,613

17 36 T3 DB Motorsport DEN BOER Jeroen/RIJNBEEK Leon BMW 120 D 2:37.429 19 2:37.429 0:10.378 160,164

18 4 T4 Mal Rose / Donut King ROSE Mal/LEEMHUIS Peter/ALFORD Tony Holden Commodor 2:38.152 17 2:38.152 0:11.101 159,431

19 23 S2 MTE Racing VIRON Alexandre/RICHARD Laurent/BORDET Pierre-Etienn/ORGEVAL Emmanuel Solution F 2:38.890 19 2:38.890 0:11.839 158,691

20 44 T3 Duwo Racing DUMONT Jean-Marie/SCHMIT Frederic/HADDOUCHE Smael/BAUGNEE Etienne BMW M3 E46 2:40.700 20 2:40.700 0:13.649 156,904

21 20 S2 Dubois Racing MAILLET Nathalie/DE KEIJSER Nicolas/DE KEIJSER Benoît Roadster S 2:42.723 16 2:42.723 0:15.672 154,953

22 46 T3 Astur Car MINETTE Roger/CAPOCCI Philippe/POITEVINEAU Eric Seat Leon Supercopa 2:43.186 17 2:43.186 0:16.135 154,513

23 45 T3 Spork Racing Team VAN RIEL Philippe/ADRIAENSSENS Jimmy/COLMAN Georges Seat Leon Supercopa 2:44.856 17 2:44.856 0:17.805 152,948

24 88 T2 MPMotorsport PLENNEVAUX Michel/KATSERS Guy/DAUGER Jean-Louis Alfa Romeo 2:45.798 18 2:45.798 0:18.747 152,079

25 51 T2 Objectif 2.30 DE VITS Alexandre/ANDRE Bernard/GALAND Benoit Honda Civic 2:46.298 15 2:46.298 0:19.247 151,622

26 27 T3 Signa Motorsport CHAILLET Patrick/VANNEROM Dirk/DE LATRE DU BOSQUEAU Seat Leon Supercopa 2:46.303 14 2:46.303 0:19.252 151,617

27 53 T2 RP-Racing WASZCZINSKI Daniel/KUPPENS Renaud Renault Clio 2:46.791 15 2:46.791 0:19.740 151,174

28 18 T4 Sport Team Italy BORRIERO Mauro/LOVATO Fabio BMW 330 D 2:49.465 17 2:49.465 0:22.414 148,788

29 70 T2 DVB Racing STEVENS Fredericus/BESSEMS Erik/POLDERMAN Stefan Renault Clio 2:49.502 13 2:49.502 0:22.451 148,756

30 32 T3 DBJ Racing BUFFET Denys/BUFFET Julien/VAN DER STRATEN Raphael BMW 130 i 2:50.225 16 2:50.225 0:23.174 148,124

31 60 T2 LCM CULOT Laurent/BONNEEL Philippe/SCHMITZ Michel Renault Clio 2:50.443 13 2:50.443 0:23.392 147,935

32 67 T2 Gabriel Racing LEGRAND Christophe/VANDENABEELE Vincent/THONET Jonathan X 2:51.306 14 2:51.306 0:24.255 147,189

33 86 T2 Dom Racing BRUGMA Thierry/MORLET Jacques/HEURCKMANS Amaury/GOFARD Pascal Renault Clio 2:53.344 18 2:53.344 0:26.293 145,459

34 80 T2 Surinx Racing DE GRAEF Wim/VAN KELST Kris/MASCAUX Olivier Honda Civic 2:53.655 17 2:53.655 0:26.604 145,198

35 62 T2 Traxx Racing VOET Christiaan/VAN DEN BROECK Bart/UBEDA Sebastien Renault Clio 2:53.861 17 2:53.861 0:26.810 145,026

36 99 T2 Prime Racing LEQUEUX Jean-Pierre/UEBERECKEN Jean-Marc/SEREXHE Bernard Renault Clio 2:53.913 15 2:53.913 0:26.862 144,983

37 71 T2 DVB Racing MERTENS Nick/OOMS Jan/VANBENEDEN Dimitri Renault Clio 2:54.057 16 2:54.057 0:27.006 144,863

38 84 T2 GDMH - Motorsport FRANCK Christian/MUNHOWEN Yann/OLIVO Jannik Renault Clio 2:55.354 18 2:55.354 0:28.303 143,791

39 81 T2 Surinx Racing DAERDEN Christophe/VAN LAERE Sven Honda Civic 2:57.792 13 2:57.792 0:30.741 141,820

40 42 T3 Duwo Racing SCHMIT Nicolas/DEMUTH Nico/SCHMITZ Joe BMW 130 i 3:00.434 18 3:00.434 0:33.383 139,743

41 49 T3 Gemex JORDENS Jos/WEYENS Marcel Ford Mondeo 3:02.896 12 3:02.896 0:35.845 137,862

42 102 T1 Mal Rose Racing 2 ZANPATTI Ross/TELLING Matt/BURTON Kevin Mitsubishi Colt RS 3:05.112 17 3:05.112 0:38.061 136,212

43 101 T1 Mal Rose Racing 1 NIALL Malcolm/PILLATI Mark/MIALL Brett Mitsubishi Colt RS 3:06.361 17 3:06.361 0:39.310 135,299

44 105 T1 Campus Automobile VANDEWAUVER Jean-Pie/BEULEN Bruno Toyota Yaris 3:06.631 18 3:06.631 0:39.580 135,103

45 93 T2 Noun Racing STASSEN Pierre/JAMAR Ronald/LOGNOUL Monika Mini Cooper S 3:07.831 4 3:07.831 0:40.780 134,240

46 100 T2 RS Team BINDELS Didier/BINDELS Chuck/ABRAMS Jack/BINDELS Gilles Mini Cooper S 3:09.662 15 3:09.662 0:42.611 132,944

47 26 T3 RPM Racing DANNEELS René/DANNEELS Xavier/GILOT Michel Renault 21 Turbo 3:22.021 4 3:22.021 0:54.970 124,811


Annulation temps


45: 2:50.397 23: 3:14.980
10: 2:36.017 7: 2:32.289
23: 2:41.017 88: 2:56.028
2: 2:38.118 60: 2:52.824
101: 5:24.309 46: 2:43.873
67: 3:04.262 70: 2:49.776
101: 3:09.156 71: 2:54.167
2: 2:44.181 84: 2:56.583
23: 2:44.287 71: 3:03.434
8: 2:26.973 51: 2:47.097


The results are provisional until the end of the time limit for protest and appeals Spa-Francorchamps
Results are suspended till the end of scrutineering

- RIS -
PHotos will be on automobilsport.com under PHOTOS SLIDESHOWS and PHotos Ecards BTCS

Permanent-URL: http://www.automobilsport.com/btcs-12-heures-de-spa-qualifying-practice1-results-ks-motorsport-delahaye-racing-chad-boutsen-energy---64381.html

05.06.2009 / MaP

More News

Jordi Gené and Jacques Villeneuve, together again after 19 years
05.06.2009
•  The Spanish and the Canadian drivers are going to be together this weekend at the wheel of a SEAT León Supercopa together with Belgium’s Pierre Yves Corthals at the 12 hours of Spa•  This is the most important event in the Belgian season, and will join Jordi and Jacques once again since they last coincided in the Formula 3 in 1990 more >>
12 Heures de Spa (samedi 6 juin) En un tour d’horloge, tout peut arriver !
04.06.2009
Avec dix Silhouettes de la classe S1, cinq S2, autant de berlines engagées en T3 et une invitée-vedette (venue de loin) en T4, on dénombre une vingtaine de voitures candidates aux places d’honneur : pas de doute, la cuvée 2009 des 12 more >>
12 Heures de Spa - Francorchamps - TIMING
03.06.2009
Friday 05.0607.00-20.00h./u.Welcome open(RacingHôtel)07.15-20.00h./uPaddock open(ViaStavelotfortrucks)08.00-08.50h./u.Administration and technical checkingsBTCSIFSPECIALAUTHORIZATION08.00-20.00h./u.Michelin Tyres Technical Centre open08.30h more >>
12 Heures de Spa - 48 équipages sur la liste des engagés
03.06.2009
(samedi 6 juin) Le programme est connu de longue date : essais libres jeudi, qualifications vendredi et départ samedi à 15h00 pour un tour d’horloge. Le décor est inchangé, aucune nouveauté n’étant à signaler cett more >>
Invitations - entrées gratuites pour les 12 Heures de Spa ici
29.05.2009
Les 12 Heures de Spa du samedi 6 juin, c’est l’événement de l’année en BTCS. Et en lever de rideau, ce sera animé aussi avec le championnat GT, les Clio, les Formule Renault 2.0, etc. Ce sera la fête au circuit avec diverses animations, feu d’artifice, etc. more >>
Trois Monégasques au volant de la Clio Team DTC Motorsport aux 12 Heures de Spa
29.05.2009
Belgian Touring Car Series 2009 / 12 Heures de Spa Epreuve phare des Belgian Touring Car Series, mais aussi grande classique de la saison sportive en circuit, les 12 Heures de Spa battront leur plein dans une grosse semaine, avec un départ donné le samedi 6 j more >>
Un champion du monde de F1 et un pilote de WTCC aux 12 Heures de Spa
28.05.2009
Jacques Villeneuve et Jordi Gené équipiers  de Pierre-Yves Corthals sur la SEAT Leon n°38 ! Depuis le début de la saison, SEAT Belgique, le Club SEAT, l’asbl RED et Pierre-Yves Corthals créent l’événe more >>
12 Heures de Spa- Plus que jamais, the place to be !
27.05.2009
 (samedi 6 juin) Même si les 12 Heures sont encore jeunes, elles peuvent déjà s’appuyer sur une solide tradition. Ainsi, de nombreux « visiteurs » viennent chaque année se mêler aux ténors des Belgian Touring more >>
Pierre-Yves Rosoux & Christophe Geoffroy : une première victoire à Zolder
20.05.2009
et Martial Chouvel en renfort lors des 12 Heures de Spa ! Après avoir décroché le titre en catégorie T3 dans les Belgian Touring Car Series 2008, le Liégeois Pierre-Yves more >>
Performances… et frustrations pour Julien Schroyen !
19.05.2009
Belgian Touring Car Series 2009 / Zolder Star Festival Après le coup d’envoi de Francorchamps et l’escale internationale de Dijon, les Belgian Touring Car Series ont envahi la pinède de Zolder ce week-end, le Gordon Zolder Star Festival more >>
Bonneel Culot montent en deuxième position au classement 2 litres
19.05.2009
Après que le duo Philippe Bonneel et Laurent Culot aient remporté deux superbes 3ième  places lors du Trophée de Bourgogne à Dijon, ils ont remis cela ce week-end  à Zolder pendant le meeting du Gordons Star Festival, o&u more >>
Fred Bouvy et Christian Kelders confortent leur avance au championnat !
18.05.2009
BTCS / Gordon Zolder Star Festival 2009 Partenaire de longue date de nombreuses équipes et d’innombrables pilotes, Gordon Finest Beers a passé la surmultipliée ce week-end, en s’associant à l’un des meetings de course organis more >>
Un week-end parfait pour Dermont-Sougnez (Mazda RX8 Silhouette) et le TBER á Zolder
18.05.2009
Gordon Zolder Star Festival Voilà le genre de week-end qui compte dans la vie d'un team : le Thierry Boutsen Energy Racing (TBER) s'est en effet offert un retentissant doublé lors du Gordon Zolder Star Festival, David Dermont et Lud more >>
Gordon Zolder Star Festival : Viron-Richard-Orgeval et Pulinx-Soulet-Fumal-Verbist se partagent les lauriers
18.05.2009
Viron-Richard-Orgeval (MTE Retrodor) et Pulinx-Soulet-Fumal-Verbist (MPM) se partagent les lauriers Ce troisième rendez-vous de la saison VW Fun Cup a confirmé les tendances constatées aux Francorchampions et au Trophé more >>
Gordon Zolder Star Festival Course 2 :Vanbellingen-Maes (BMW) polemen
16.05.2009
Course 2 - qualification : 1. Vanbellingen-Maes (BMW M3 Silhouette) 1.34.278 ; 2. Stéveny-Dockerill (KIA Pro_Cee'd Silhouette) 1.34.724 ; 3. Thiry-Cleynhens-Smits (Jaguar X-Type Silhouette) 1.34.912 ; 4. De Crem-Schroyen ( more >>
Gordon Zolder Star Festival course 1 qualifications
16.05.2009
Course 1 :   Dermont-Sougnez (Mazda RX8) polemen    Course 1 - qualifications : 1. Dermont-Sougnez (Mazda RX8 Silhouette) 1.50.304 ; more >>
Gordon Zolder Star Festival -Ludovic Sougnez équipier de David Dermont sur la Mazda RX8 !
15.05.2009
On connaît le nom de l’équipier de David Dermont ce week-end sur la Mazda RX8 Silhouet more >>
Gordon Zolder Star Festival- MPM et Colson Racing ...
14.05.2009
...dans le collimateur de nombreux adversaires Gordon Zolder Star Festival (15-17 mai) Une nouvelle rencontre internationale attend les teams belges de VW Fun Cup : battus par la Squadra Azzura à Dijon, nos spécial more >>
Gordon Zolder Star Festival - Des surprises au milieu des dunes?
14.05.2009
A peine rentrés de Bourgogne, les teams engagés dans les Belgian Touring Car Series 2009 se sont remis au travail pour préparer le troisième rendez-vous de la saison, le Gordon Zolder Star Festival. Sur une piste où les mécaniques et les more >>
Place au Gordon Zolder Star Festival ce prochain week-end !
14.05.2009
Belgian Touring Car Series 2009 Depuis de longues années, les bières Gordon s’imposent en partenaire privilégié et fidèle du sport automobile dans notre pays. On ne compte plus les bolides affichant le déjà lé more >>
Gordon Zolder Star Festival- Patrick Snijers équipier de Pierre-Yves Corthals sur la SEAT Leon
13.05.2009
Après un comédien et un footballeur de renommée mondiale, place à un pilote de rallye. Et pas n’importe lequel : c’est en effet Patrick Snijers qui succédera à Stéphane De Groodt et à Fabien Barthez aux côtés de Pierre-Y more >>
KS Motorsport remporte de nouveau la victoire à Dijon !
06.05.2009
Ruben Maes et Steve Vanbellingen ont ajouté la deuxième manche des Belgian Touring Car Series programmée ce week-end sur le circuit français de Dijon à leur palmarès. Le duo portant les couleurs de KS Motorsport a conquis une victoire de haut more >>
Julien Schroyen battu par… le temps pivot !
05.05.2009
Belgian Touring Car Series 2009 / Trophée de Bourgogne Après l’excellent coup d’envoi de Francorchamps, qui s’était soldé par deux premiers podiums pour Julien Schroyen au volant de l’Audi A4 Silho more >>
Bonneel-Culot deux fois sur le podium à Dijon!
05.05.2009
Le week-end passé avait lieu le « Trophée de Bourgogne », la deuxième manche du championnat BTCS 2009.  Le petit monde du BTCS a dressé ses tentes à Dijon en France sous un soleil radieux mais frais.Après un d more >>
Trophée de Bourgogne KIA et BMW s’imposent, mais ...
05.05.2009
... les places deviennent très chères… L'air de la Bourgogne convient manifestement aux KIA Pro Cee'd Silhouette qui y ont remporté leur première victoire, signant même un superbe doublé dans la course initiale. La seco more >>
Fabien Barthez met les gants de course pour la bonne cause
04.05.2009
Cinq questions à… Fabien Barthez, pilote d’un week-end de la SEAT Leon n°38 Fabien, comment un des héros de la coupe du monde 1998 de football se retrouve-t-il au volant de la SEAT Leon aux couleurs de RED et du Club SEAT more >>
Trophée de Bourgogne Forza Italia : Memmola-Palopoli s’imposent !
04.05.2009
Comme aux Francorchampions, les concurrents engagés au Trophée de Bourgogne s’affrontent durant trois heures le samedi avant de se retrouver pour la même durée le dimanche ; entre les deux mi-temps, les compteurs sont remis à z&e more >>
Dijon - Trophée de Bourgogne - race 2 results
04.05.2009
1 3 S1 KS Motorsport VANBELLINGEN Steve/MAES Ruben Excelsior - 298 720 BMW M3 1:31:14.896 63 157,458 1:21.990 - 45 166,8942 1 S1 Delahaye Racing Team BOUVY Frederic/KELDERS Christian Bouvy F. - 699 027 Renault Mégane 1:31:15.464 63 0:00.568 157,442 1:21.912 - 39 167,0523 7 S1 Chad Racing STEVENY Philippe/DOCKERILL Iain Bokkenrijders - 020 982 Kia Proceed 1:31:30.074 63 0:15.1 more >>
DIJON - VW FUN CUP - Trophée de Bourgogne race 2 results
04.05.2009
1 86 . D G-Force I/I VW Fun Cup 6:01:39.907 208 131,161 1:38.765 - 3 138,5472 19 . D Colson Racing B/B/B VW Fun Cup 6:02:03.705 208 0:23.798 131,018 1:40.567 - 2 136,0653 40 . D Groupe Circus B/B/B VW Fun Cup 6:02:15.749 208 0:35.842 130,945 1:40.274 - 100 136,4624 127 . D BD Racing 1 I/I/I/I VW Fun Cup 6:03:13.673 207 1 L 129,969 1:38.814 - 10 138,4785 268 . D MPM Racin more >>
Dijon Trophée de Bourgogne race 1 results
04.05.2009
1 7 S1 Chad Racing STEVENY Philippe/DOCKERILL Iain Bokkenrijders - 020 982 Kia Proceed 1:30:45.607 61 153,279 1:21.933 - 38 167,0102 17 S1 Chad Racing VAN HOOYDONCK Jeffrey/VANTHOOR Raf Hesbaye - 184 793 Kia Proceed 1:30:57.187 61 0:11.580 152,954 1:21.922 - 26 167,0323 8 S1 TBR SAMON Tony/DERLOT Renaud Boutsen Energy - 901 549 Mazda RX 8 1:31:10.156 61 0:24.549 152,592 1:21.682 - 2 more >>
DIJON Trophée de Bourgogne BTCS Free Practice 2
02.05.2009
Dijon 1 & 2 & 3 Mai 20091 7 S1 Chad Racing STEVENY Philippe/DOCKERILL Iain Kia Proceed 1:18.860 66 1:18.860 173,5182 21 S1 KS Motorsport REDANT Bert/MOONENS Werner BMW M3 1:20.610 65 1:20.610 0:01.750 169,7513 8 S1 TBR LEMERET Stéphane/DERLOT Renaud Mazda RX 8 1:20.720 62 1:20.720 0:01.860 169,5194 1 S1 Delahaye Racing Team BOUVY Fre more >>
DIJON Trophée de Bourgogne - VW Fun CUp Free Practice 2 results
02.05.2009
Dijon 2 & 3 Mai 20091 86 . D G-Force VW Fun Cup 1:38.677 43 1:38.677 138,6712 253 . D Zebra Fun VW Fun Cup 1:39.002 35 1:39.002 0:00.325 138,2153 19 . D Colson Racing VW Fun Cup 1:39.957 44 1:39.957 0:01.280 136,8954 124 . D The Cats 1 VW Fun Cup 1:40.045 40 1:40.045 0:01.368 136,7745 268 . D MPM Racing VW Fun Cup 1:40.284 53 1:40.284 0:0 more >>
Trophée de Bourgogne La seconde KIA Pro Cee’d présente, avec Vanthoor-Van Hooydonk au volant
30.04.2009
Une solution a finalement été trouvée pour que la deuxième KIA Pro Cee’d Silhouette soit bel et bien de la partie au Trophée de Bourgogne. Retenu en Belgique, Koen Wauters sera remplacé à cette occasion par Jeffrey Van Hooydonk qui fera donc cau more >>
Trophée de Bourgogne à Dijon - Un rendez-vous incontournable !
29.04.2009
Tant qu’à franchir la frontière, mieux vaut mettre le cap sur une région aux attraits multiples. Cela tombe bien, la Bourgogne répond parfaitement à cette définition : accueil, gastronomie, environnement, rien ne manque pour faire d’un d& more >>
Gordon Zolder Star Festival : 16 – 17 mai - Entrées gratuites - free entrance
29.04.2009
Le Gordon Zolder Star Festival (16 & 17 mai), ce sont des courses de BTCS, de VW Fun Cup et de voitures historiques mais aussi une pléiade d’animations (Tuning, Bikes Stuntshow, Miss Mechanic, etc.).PRC Gr more >>
Demo City à Louvain
19.04.2009
Soleil + teams + public = belle réussite   C’était une première mais ce ne sera pas une dernière : la City Demo organisée samedi dans le centre de Louvain s’est en effet sold& more >>
Le Gordon Racing Team omniprésent dans les rues de Louvain… afin de promouvoir le Gordon Zolder Star Festival !
17.04.2009
Belgian Touring Car Series 2009 Quelques jours à peine après l’excellent coup d’envoi des Francorchampions sur le légendaire tracé spadois, les bolides des Belgian Touring Car Series vont de nouveau vrombir& more >>
Fred Bouvy et Christian Kelders déjà en tête du championnat !
14.04.2009
Belgian Touring Car Series 2009 / Francorchampions En ce week-end pascal, sur le tracé de Francorchamps, les compétitions nationales en circuit ont officiellement débuté sous un soleil printanier. Champions en titre dans les Belgian Tou more >>
Double podium très prometteur pour Julien Schroyen au volant de l’Audi A4 Silhouette !
14.04.2009
Belgian Touring Car Series 2009 / Francorchampions C’est sous un soleil printanier que les Belgian Touring Car Series 2009 ont pris leur envol ce dimanche sur le circuit de Francorchamps. Pour Julien Schroyen, il s’agissait avant tout de prendre more >>

Kategorien

2001-2022 automobilsport.com full copyright